Autryville, NC

7:10 PM EST on December 22, 2014 (GMT -0500)
Big Creek | Change Station
CLOSE
Current Station
Personal Weather Station
Location: Stedman, NC
Elevation: 98 ft
Nearby Weather Stations

Elev 98 ft 35.04 °N, 78.67 °W | Updated 19 seconds ago

Overcast
Overcast
40.6 °F
Feels Like 41 °F
N
1.0
Wind Variable Wind from SE
Gusts 4.0 mph

Today
High -- | Low -- °F
--% Chance of Precip.
Yesterday
High -- | Low -- °F
Precip. -- in
7:18 AM 5:07 PM
New Moon, 1% visible
Pressure 30.04 in
Visibility 2.5 miles
Clouds Overcast 200 ft
Windchill 41 °F
Dew Point 40 °F
Humidity 99%
Rainfall 0.74 in
Snow Depth Not available.
UV 0 out of 12
Pollen .30 out of 12
Air Quality Not available.
Flu Activity Not available.
METAR KCTZ 222355Z AUTO 36004KT 2 1/2SM -DZ OVC002 05/05 A3004 RMK AO2 T00520052 10061 20052

More Conditions Fewer Conditions

Pressure 30.04 in
Visibility 2.5 miles
Clouds Overcast 200 ft
Windchill 41 °F
Dew Point 40 °F
Humidity 99%
Rainfall 0.74 in
Snow Depth Not available.
UV 0 out of 12
Pollen .30 out of 12
Air Quality Not available.
Flu Activity Not available.
METAR KCTZ 222355Z AUTO 36004KT 2 1/2SM -DZ OVC002 05/05 A3004 RMK AO2 T00520052 10061 20052

More Conditions Fewer Conditions

10-Day Weather Forecast

Almanac

Astronomy

Dec. 22, 2014 Rise Set
Actual Time
Civil Twilight
Nautical Twilight
Astronomical Twilight
Moon
Length of Visible Light
Length of Day
Tomorrow will be .
, % of the Moon is Illuminated

Today's Extremes

State Highs State Lows

Community

WunderPhotos

Upload Photos

1,779,736 photos uploaded!

WunderBlogs® & News

Nearby

Air Quality

  Air Quality AQ Index Pollutant
Not available.

Snow Depth

Station Depth Elevation

Earthquake Activity

City Distance Mag. Time & Date
Minimum magnitude displayed is 2.5.

Coastal Water Temperatures

Place Temperature

Nearby Weather Stations